createdAt,value
2017-11-01T00:01:02.326Z,83.46
2017-11-01T00:03:29.851Z,84.14
2017-11-01T00:05:57.444Z,82.68
2017-11-01T00:08:24.973Z,82.78
2017-11-01T00:10:52.600Z,83.29
2017-11-01T00:13:20.131Z,82.88
2017-11-01T00:15:47.662Z,83.19
2017-11-01T00:18:15.285Z,83.11
2017-11-01T00:20:42.841Z,83.92
2017-11-01T00:23:10.373Z,83.21
2017-11-01T00:25:37.907Z,83.48
2017-11-01T00:28:05.908Z,83.78
2017-11-01T00:30:33.498Z,82.70
2017-11-01T00:33:01.171Z,82.50
2017-11-01T00:35:28.705Z,82.67
2017-11-01T00:37:56.249Z,82.47
2017-11-01T00:40:23.788Z,82.50
2017-11-01T00:42:51.524Z,82.52
2017-11-01T00:45:19.073Z,82.97
2017-11-01T00:47:46.604Z,82.76
2017-11-01T00:50:14.137Z,82.50
2017-11-01T00:52:41.683Z,82.54
2017-11-01T00:55:09.225Z,82.20
2017-11-01T00:57:36.761Z,82.38
2017-11-01T01:00:04.307Z,83.03
2017-11-01T01:02:31.840Z,83.35
2017-11-01T01:04:59.436Z,82.78
2017-11-01T01:07:27.212Z,82.67
2017-11-01T01:09:54.772Z,82.27
2017-11-01T01:12:22.309Z,83.15
2017-11-01T01:14:49.892Z,82.75
2017-11-01T01:17:17.452Z,82.48
2017-11-01T01:19:45.017Z,82.43
2017-11-01T01:22:12.572Z,82.29
2017-11-01T01:24:40.108Z,82.46
2017-11-01T01:27:07.697Z,82.82
2017-11-01T01:29:35.252Z,82.84
2017-11-01T01:32:02.817Z,81.83
2017-11-01T01:34:30.352Z,81.47
2017-11-01T01:36:57.888Z,82.55
2017-11-01T01:39:25.501Z,82.01
2017-11-01T01:41:53.032Z,82.49
2017-11-01T01:44:20.560Z,82.27
2017-11-01T01:46:48.728Z,81.82
2017-11-01T01:49:16.296Z,81.98
2017-11-01T01:51:43.840Z,81.93
2017-11-01T01:54:11.376Z,81.73
2017-11-01T01:56:38.940Z,81.67
2017-11-01T01:59:06.500Z,82.13
2017-11-01T02:01:34.979Z,82.21
2017-11-01T02:04:02.528Z,82.30
2017-11-01T02:06:30.058Z,82.52
2017-11-01T02:08:57.603Z,82.94
2017-11-01T02:11:25.216Z,82.51
2017-11-01T02:13:52.876Z,82.22
2017-11-01T02:16:21.206Z,82.58
2017-11-01T02:18:48.741Z,83.17
2017-11-01T02:21:16.272Z,82.62
2017-11-01T02:23:44.553Z,82.72
2017-11-01T02:26:12.114Z,82.96
2017-11-01T02:28:39.677Z,82.82
2017-11-01T02:31:08.049Z,82.82
2017-11-01T02:33:35.628Z,83.44
2017-11-01T02:36:03.165Z,83.14
2017-11-01T02:38:31.608Z,83.17
2017-11-01T02:40:59.219Z,83.01
2017-11-01T02:43:27.549Z,82.97
2017-11-01T02:45:55.082Z,83.04
2017-11-01T02:48:22.616Z,83.20
2017-11-01T02:50:50.944Z,83.81
2017-11-01T02:53:18.481Z,83.32
2017-11-01T02:55:46.372Z,83.32
2017-11-01T02:58:14.837Z,83.10
2017-11-01T03:00:43.189Z,83.81
2017-11-01T03:03:10.756Z,83.33
2017-11-01T03:05:39.080Z,83.91
2017-11-01T03:08:06.654Z,84.12
2017-11-01T03:10:35.160Z,83.94
2017-11-01T03:13:02.701Z,84.41
2017-11-01T03:15:30.228Z,84.40
2017-11-01T03:17:57.844Z,84.99
2017-11-01T03:20:25.376Z,84.56
2017-11-01T03:22:52.905Z,84.95
2017-11-01T03:25:21.443Z,85.33
2017-11-01T03:27:48.972Z,86.14
2017-11-01T03:30:16.501Z,86.98
2017-11-01T03:32:44.512Z,87.43
2017-11-01T03:35:12.085Z,88.20
2017-11-01T03:37:39.607Z,88.71
2017-11-01T03:40:07.144Z,88.90
2017-11-01T03:42:34.703Z,89.95
2017-11-01T03:45:02.344Z,90.31
2017-11-01T03:47:29.914Z,90.55
2017-11-01T03:49:57.457Z,90.76
2017-11-01T03:52:25.841Z,91.56
2017-11-01T03:54:53.381Z,92.35
2017-11-01T03:57:20.949Z,92.64
2017-11-01T03:59:48.588Z,92.36
2017-11-01T04:02:16.126Z,92.44
2017-11-01T04:04:43.740Z,92.93
2017-11-01T04:07:11.279Z,93.06
2017-11-01T04:09:39.709Z,93.24
2017-11-01T04:12:07.353Z,92.97
2017-11-01T04:14:34.888Z,93.50
2017-11-01T04:17:02.422Z,93.79
2017-11-01T04:19:30.033Z,93.35
2017-11-01T04:21:57.597Z,93.52
2017-11-01T04:24:25.132Z,93.85
2017-11-01T04:26:53.391Z,93.79
2017-11-01T04:29:21.656Z,93.44
2017-11-01T04:31:49.183Z,93.58
2017-11-01T04:34:16.715Z,93.45
2017-11-01T04:36:44.281Z,94.30
2017-11-01T04:39:11.848Z,94.06
2017-11-01T04:41:40.008Z,93.58
2017-11-01T04:44:07.548Z,93.55
2017-11-01T04:46:35.084Z,93.29
2017-11-01T04:49:04.644Z,93.35
2017-11-01T04:51:32.191Z,93.67
2017-11-01T04:54:02.545Z,94.12
2017-11-01T04:56:30.080Z,93.94
2017-11-01T04:58:57.623Z,94.54
2017-11-01T05:01:25.217Z,95.32
2017-11-01T05:03:52.790Z,94.76
2017-11-01T05:06:20.336Z,94.08
2017-11-01T05:08:50.146Z,93.84
2017-11-01T05:11:18.518Z,93.84
2017-11-01T05:13:53.349Z,94.49
2017-11-01T05:16:21.702Z,94.15
2017-11-01T05:18:50.272Z,93.86
2017-11-01T05:21:17.817Z,93.64
2017-11-01T05:23:47.173Z,93.55
2017-11-01T05:26:14.709Z,93.99
2017-11-01T05:28:43.024Z,94.35
2017-11-01T05:31:10.682Z,94.31
2017-11-01T05:33:38.207Z,94.25
2017-11-01T05:36:05.741Z,94.20
2017-11-01T05:38:33.360Z,94.56
2017-11-01T05:41:00.901Z,94.83
2017-11-01T05:43:28.490Z,94.54
2017-11-01T05:45:56.048Z,94.28
2017-11-01T05:48:23.614Z,94.85
2017-11-01T05:50:51.179Z,94.98
2017-11-01T05:53:22.073Z,95.10
2017-11-01T05:55:49.601Z,94.81
2017-11-01T05:58:21.536Z,95.34
2017-11-01T06:00:49.294Z,95.34
2017-11-01T06:03:20.045Z,95.35
2017-11-01T06:05:47.577Z,95.37
2017-11-01T06:08:16.209Z,95.02
2017-11-01T06:10:43.739Z,95.36
2017-11-01T06:13:11.304Z,95.08
2017-11-01T06:15:38.829Z,95.36
2017-11-01T06:18:06.412Z,95.20
2017-11-01T06:20:33.953Z,94.84
2017-11-01T06:23:02.293Z,95.10
2017-11-01T06:25:30.701Z,95.03
2017-11-01T06:27:58.289Z,95.00
2017-11-01T06:30:26.578Z,94.94
2017-11-01T06:32:54.136Z,95.46
2017-11-01T06:35:22.616Z,95.34
2017-11-01T06:37:50.148Z,95.09
2017-11-01T06:40:19.918Z,95.42
2017-11-01T06:42:48.260Z,94.86
2017-11-01T06:45:15.793Z,94.73
2017-11-01T06:47:44.200Z,95.57
2017-11-01T06:50:11.768Z,95.01
2017-11-01T06:52:40.228Z,94.95
2017-11-01T06:55:08.734Z,95.00
2017-11-01T06:57:36.266Z,95.31
2017-11-01T07:00:11.292Z,94.64
2017-11-01T07:02:43.769Z,94.23
2017-11-01T07:05:14.141Z,94.56
2017-11-01T07:07:42.611Z,94.60
2017-11-01T07:10:10.928Z,94.58
2017-11-01T07:12:39.464Z,94.45
2017-11-01T07:15:06.992Z,94.56
2017-11-01T07:17:34.524Z,94.35
2017-11-01T07:20:03.073Z,94.03
2017-11-01T07:22:31.452Z,94.07
2017-11-01T07:24:59.780Z,94.46
2017-11-01T07:27:27.313Z,94.37
2017-11-01T07:29:54.885Z,94.54
2017-11-01T07:32:23.224Z,94.69
2017-11-01T07:34:51.653Z,94.48
2017-11-01T07:37:19.203Z,94.58
2017-11-01T07:39:47.668Z,94.25
2017-11-01T07:42:15.220Z,94.18
2017-11-01T07:44:43.604Z,94.41
2017-11-01T07:47:11.161Z,94.49
2017-11-01T07:49:38.703Z,94.73
2017-11-01T07:52:06.236Z,95.26
2017-11-01T07:54:33.827Z,95.28
2017-11-01T07:57:02.201Z,95.24
2017-11-01T07:59:29.733Z,95.37
2017-11-01T08:01:57.265Z,95.57
2017-11-01T08:04:24.857Z,95.35
2017-11-01T08:06:52.388Z,95.58
2017-11-01T08:09:19.931Z,95.43
2017-11-01T08:11:48.388Z,95.40
2017-11-01T08:14:15.971Z,95.66
2017-11-01T08:16:44.404Z,95.95
2017-11-01T08:19:11.930Z,96.02
2017-11-01T08:21:39.465Z,95.75
2017-11-01T08:24:07.024Z,95.52
2017-11-01T08:26:34.577Z,95.08
2017-11-01T08:29:03.046Z,94.94
2017-11-01T08:31:31.573Z,94.58
2017-11-01T08:33:59.209Z,94.83
2017-11-01T08:36:27.443Z,94.96
2017-11-01T08:38:54.974Z,95.64
2017-11-01T08:41:23.439Z,94.76
2017-11-01T08:43:51.034Z,94.65
2017-11-01T08:46:19.672Z,94.95
2017-11-01T08:48:47.201Z,94.55
2017-11-01T08:51:14.784Z,94.83
2017-11-01T08:53:43.261Z,94.87
2017-11-01T08:56:14.654Z,94.25
2017-11-01T08:58:42.317Z,94.77
2017-11-01T09:01:09.841Z,94.28
2017-11-01T09:03:38.308Z,94.19
2017-11-01T09:06:05.842Z,94.75
2017-11-01T09:08:33.451Z,94.74
2017-11-01T09:11:01.830Z,94.86
2017-11-01T09:13:30.188Z,95.15
2017-11-01T09:15:58.516Z,95.18
2017-11-01T09:18:26.088Z,95.10
2017-11-01T09:20:53.944Z,95.44
2017-11-01T09:23:22.373Z,95.33
2017-11-01T09:25:49.901Z,95.31
2017-11-01T09:28:18.436Z,95.74
2017-11-01T09:30:46.769Z,94.93
2017-11-01T09:33:14.300Z,95.07
2017-11-01T09:35:41.861Z,95.24
2017-11-01T09:38:10.173Z,95.50
2017-11-01T09:40:38.593Z,94.87
2017-11-01T09:43:06.161Z,95.19
2017-11-01T09:45:34.644Z,94.80
2017-11-01T09:48:02.179Z,95.00
2017-11-01T09:50:30.652Z,94.99
2017-11-01T09:52:58.194Z,94.84
2017-11-01T09:55:26.728Z,95.11
2017-11-01T09:57:55.158Z,95.25
2017-11-01T10:00:23.331Z,95.80
2017-11-01T10:02:51.348Z,95.91
2017-11-01T10:05:18.884Z,95.85
2017-11-01T10:07:47.390Z,95.29
2017-11-01T10:10:15.772Z,95.20
2017-11-01T10:12:44.099Z,95.07
2017-11-01T10:15:11.712Z,94.72
2017-11-01T10:17:40.298Z,94.58
2017-11-01T10:20:07.870Z,94.92
2017-11-01T10:22:36.222Z,95.06
2017-11-01T10:25:04.720Z,95.94
2017-11-01T10:27:32.295Z,95.38
2017-11-01T10:29:59.826Z,94.71
2017-11-01T10:32:28.173Z,95.05
2017-11-01T10:34:56.504Z,95.07
2017-11-01T10:37:24.980Z,95.29
2017-11-01T10:39:52.552Z,95.38
2017-11-01T10:42:21.029Z,95.39
2017-11-01T10:44:48.561Z,95.49
2017-11-01T10:47:16.864Z,95.73
2017-11-01T10:49:45.184Z,95.74
2017-11-01T10:52:12.730Z,95.52
2017-11-01T10:54:40.363Z,95.59
2017-11-01T10:57:07.903Z,95.57
2017-11-01T10:59:35.481Z,95.69
2017-11-01T11:02:03.026Z,96.02
2017-11-01T11:04:30.562Z,95.66
2017-11-01T11:06:58.162Z,95.63
2017-11-01T11:09:25.725Z,95.66
2017-11-01T11:11:53.284Z,95.78
2017-11-01T11:14:20.827Z,96.44
2017-11-01T11:16:48.395Z,96.25
2017-11-01T11:19:15.963Z,96.25
2017-11-01T11:21:43.515Z,96.17
2017-11-01T11:24:11.053Z,95.56
2017-11-01T11:26:38.645Z,95.72
2017-11-01T11:29:06.216Z,95.70
2017-11-01T11:31:34.729Z,95.68
2017-11-01T11:34:02.353Z,95.51
2017-11-01T11:36:30.689Z,95.16
2017-11-01T11:38:58.225Z,95.06
2017-11-01T11:41:25.773Z,95.03
2017-11-01T11:43:53.308Z,94.98
2017-11-01T11:46:21.628Z,94.96
2017-11-01T11:48:49.180Z,95.02
2017-11-01T11:51:16.780Z,94.88
2017-11-01T11:53:44.329Z,94.75
2017-11-01T11:56:11.878Z,94.73
2017-11-01T11:58:39.495Z,95.22
2017-11-01T12:01:07.026Z,95.33
2017-11-01T12:03:35.446Z,95.56
2017-11-01T12:06:03.094Z,95.36
2017-11-01T12:08:30.759Z,95.18
2017-11-01T12:10:58.424Z,95.64
2017-11-01T12:13:26.880Z,95.84
2017-11-01T12:15:54.764Z,95.36
2017-11-01T12:18:23.212Z,94.91
2017-11-01T12:20:50.785Z,95.31
2017-11-01T12:23:19.091Z,95.17
2017-11-01T12:25:46.943Z,95.14
2017-11-01T12:28:14.480Z,95.35
2017-11-01T12:30:42.021Z,95.49
2017-11-01T12:33:09.573Z,95.52
2017-11-01T12:35:37.885Z,95.34
2017-11-01T12:38:05.477Z,95.44
2017-11-01T12:40:33.865Z,95.40
2017-11-01T12:43:02.237Z,95.44
2017-11-01T12:45:30.783Z,95.43
2017-11-01T12:47:59.172Z,95.50
2017-11-01T12:50:27.580Z,95.27
2017-11-01T12:52:55.963Z,95.14
2017-11-01T12:55:24.899Z,95.97
2017-11-01T12:57:54.238Z,95.91
2017-11-01T13:00:22.532Z,95.94
2017-11-01T13:02:50.098Z,96.28
2017-11-01T13:05:18.417Z,96.45
2017-11-01T13:07:46.769Z,96.55
2017-11-01T13:10:15.115Z,96.38
2017-11-01T13:12:43.608Z,96.28
2017-11-01T13:15:11.995Z,96.02
2017-11-01T13:17:40.307Z,96.07
2017-11-01T13:20:07.932Z,96.61
2017-11-01T13:22:36.283Z,96.34
2017-11-01T13:25:03.822Z,96.05
2017-11-01T13:27:32.239Z,96.12
2017-11-01T13:29:59.904Z,96.17
2017-11-01T13:32:28.398Z,96.18
2017-11-01T13:34:56.042Z,96.06
2017-11-01T13:37:23.841Z,95.91
2017-11-01T13:39:51.374Z,96.07
2017-11-01T13:42:19.855Z,95.96
2017-11-01T13:44:47.398Z,95.89
2017-11-01T13:47:15.806Z,95.88
2017-11-01T13:49:43.359Z,95.64
2017-11-01T13:52:11.833Z,95.64
2017-11-01T13:54:39.401Z,95.94
2017-11-01T13:57:06.942Z,96.33
2017-11-01T13:59:35.421Z,96.21
2017-11-01T14:02:02.962Z,96.18
2017-11-01T14:04:30.681Z,95.58
2017-11-01T14:06:58.224Z,95.47
2017-11-01T14:09:26.456Z,95.58
2017-11-01T14:11:54.287Z,95.65
2017-11-01T14:14:21.837Z,95.50
2017-11-01T14:16:49.381Z,95.22
2017-11-01T14:19:16.927Z,94.98
2017-11-01T14:21:44.461Z,95.45
2017-11-01T14:24:12.072Z,95.30
2017-11-01T14:26:39.609Z,95.50
2017-11-01T14:29:07.204Z,95.10
2017-11-01T14:31:34.864Z,95.60
2017-11-01T14:34:02.436Z,95.70
2017-11-01T14:36:29.969Z,95.26
2017-11-01T14:38:57.509Z,95.31
2017-11-01T14:41:25.376Z,95.38
2017-11-01T14:43:52.924Z,95.51
2017-11-01T14:46:21.240Z,95.21
2017-11-01T14:48:48.775Z,95.46
2017-11-01T14:51:16.372Z,95.51
2017-11-01T14:53:43.928Z,95.70
2017-11-01T14:56:11.468Z,95.67
2017-11-01T14:58:39.049Z,95.98
2017-11-01T15:03:40.340Z,95.28
2017-11-01T15:06:07.980Z,95.64
2017-11-01T15:08:35.546Z,96.01
2017-11-01T15:11:03.105Z,95.93
2017-11-01T15:13:30.643Z,96.14
2017-11-01T15:15:58.185Z,96.08
2017-11-01T15:18:25.727Z,95.72
2017-11-01T15:20:53.273Z,95.97
2017-11-01T15:23:20.820Z,95.93
2017-11-01T15:25:48.466Z,95.64
2017-11-01T15:28:16.000Z,95.57
2017-11-01T15:30:43.541Z,95.54
2017-11-01T15:33:11.077Z,95.64
2017-11-01T15:35:38.613Z,95.87
2017-11-01T15:38:06.147Z,95.82
2017-11-01T15:40:33.687Z,95.91
2017-11-01T15:43:01.228Z,95.68
2017-11-01T15:45:28.828Z,95.50
2017-11-01T15:47:56.980Z,95.48
2017-11-01T15:50:24.789Z,95.77
2017-11-01T15:52:52.328Z,95.92
2017-11-01T15:55:19.869Z,95.34
2017-11-01T15:57:48.192Z,95.19
2017-11-01T16:00:16.622Z,95.32
2017-11-01T16:02:44.161Z,95.23
2017-11-01T16:05:11.711Z,95.72
2017-11-01T16:07:39.249Z,95.12
2017-11-01T16:10:07.601Z,95.46
2017-11-01T16:12:36.074Z,95.50
2017-11-01T16:15:04.412Z,95.64
2017-11-01T16:17:31.953Z,95.53
2017-11-01T16:20:00.412Z,95.37
2017-11-01T16:22:27.956Z,95.67
2017-11-01T16:24:56.906Z,95.41
2017-11-01T16:27:25.275Z,95.26
2017-11-01T16:29:52.813Z,95.41
2017-11-01T16:32:20.377Z,95.21
2017-11-01T16:34:48.863Z,95.03
2017-11-01T16:37:17.300Z,95.11
2017-11-01T16:39:44.901Z,95.09
2017-11-01T16:42:13.131Z,95.44
2017-11-01T16:44:40.662Z,95.25
2017-11-01T16:47:08.196Z,95.29
2017-11-01T16:49:35.733Z,95.14
2017-11-01T16:52:03.327Z,95.06
2017-11-01T16:54:30.868Z,94.97
2017-11-01T16:56:58.445Z,94.82
2017-11-01T16:59:26.750Z,94.83
2017-11-01T17:01:54.289Z,95.02
2017-11-01T17:04:21.865Z,94.92
2017-11-01T17:06:49.496Z,95.14
2017-11-01T17:09:17.029Z,95.00
2017-11-01T17:11:44.622Z,94.53
2017-11-01T17:14:12.163Z,94.52
2017-11-01T17:16:39.745Z,95.36
2017-11-01T17:19:08.000Z,95.08
2017-11-01T17:21:35.540Z,94.97
2017-11-01T17:24:03.145Z,94.98
2017-11-01T17:26:30.703Z,95.54
2017-11-01T17:28:58.279Z,95.41
2017-11-01T17:31:26.866Z,95.62
2017-11-01T17:33:54.406Z,95.38
2017-11-01T17:36:21.961Z,95.51
2017-11-01T17:38:49.491Z,95.32
2017-11-01T17:41:17.071Z,95.39
2017-11-01T17:43:44.609Z,95.22
2017-11-01T17:46:12.188Z,95.17
2017-11-01T17:48:39.744Z,95.41
2017-11-01T17:51:07.330Z,95.66
2017-11-01T17:53:34.873Z,95.74
2017-11-01T17:56:02.561Z,95.85
2017-11-01T17:58:30.117Z,95.33
2017-11-01T18:00:57.661Z,94.87
2017-11-01T18:03:25.233Z,95.25
2017-11-01T18:05:53.690Z,95.25
2017-11-01T18:08:21.236Z,94.91
2017-11-01T18:10:48.830Z,95.28
2017-11-01T18:13:16.377Z,95.53
2017-11-01T18:15:43.917Z,95.35
2017-11-01T18:18:11.482Z,95.16
2017-11-01T18:20:39.746Z,95.03
2017-11-01T18:23:07.357Z,95.61
2017-11-01T18:25:34.920Z,95.48
2017-11-01T18:28:02.492Z,95.42
2017-11-01T18:30:30.037Z,95.34
2017-11-01T18:32:58.517Z,95.09
2017-11-01T18:35:27.918Z,94.77
2017-11-01T18:37:57.338Z,94.86
2017-11-01T18:40:24.986Z,94.83
2017-11-01T18:42:52.530Z,94.93
2017-11-01T18:45:20.068Z,95.06
2017-11-01T18:47:48.517Z,95.58
2017-11-01T18:50:16.056Z,95.26
2017-11-01T18:52:43.615Z,95.30
2017-11-01T18:55:11.185Z,95.46
2017-11-01T18:57:39.581Z,95.54
2017-11-01T19:00:08.032Z,95.37
2017-11-01T19:02:36.409Z,95.12
2017-11-01T19:05:03.957Z,95.07
2017-11-01T19:07:31.503Z,95.58
2017-11-01T19:09:59.050Z,94.97
2017-11-01T19:12:27.376Z,94.83
2017-11-01T19:14:54.929Z,95.33
2017-11-01T19:17:23.301Z,95.40
2017-11-01T19:19:51.641Z,95.60
2017-11-01T19:22:20.130Z,95.53
2017-11-01T19:24:47.671Z,95.53
2017-11-01T19:27:15.216Z,95.62
2017-11-01T19:29:43.438Z,95.75
2017-11-01T19:32:12.466Z,95.55
2017-11-01T19:34:40.952Z,95.61
2017-11-01T19:37:09.262Z,95.84
2017-11-01T19:39:37.584Z,95.92
2017-11-01T19:42:05.136Z,95.62
2017-11-01T19:44:32.680Z,95.67
2017-11-01T19:47:01.001Z,95.83
2017-11-01T19:49:29.379Z,95.80
2017-11-01T19:51:58.291Z,95.44
2017-11-01T19:54:25.929Z,95.40
2017-11-01T19:56:53.477Z,95.46
2017-11-01T19:59:21.162Z,95.61
2017-11-01T20:01:49.486Z,95.79
2017-11-01T20:04:17.942Z,95.69
2017-11-01T20:06:46.302Z,96.00
2017-11-01T20:09:13.864Z,95.71
2017-11-01T20:11:42.315Z,95.71
2017-11-01T20:14:09.869Z,95.83
2017-11-01T20:16:38.286Z,95.79
2017-11-01T20:19:05.838Z,96.39
2017-11-01T20:21:34.318Z,96.21
2017-11-01T20:24:01.865Z,95.81
2017-11-01T20:26:29.412Z,95.90
2017-11-01T20:28:58.038Z,95.71
2017-11-01T20:31:25.660Z,96.06
2017-11-01T20:33:53.210Z,96.06
2017-11-01T20:36:21.694Z,96.39
2017-11-01T20:38:50.068Z,96.01
2017-11-01T20:41:17.674Z,96.36
2017-11-01T20:43:45.448Z,96.68
2017-11-01T20:46:14.027Z,96.73
2017-11-01T20:48:41.837Z,96.30
2017-11-01T20:51:09.389Z,96.19
2017-11-01T20:53:37.776Z,95.36
2017-11-01T20:56:05.381Z,95.91
2017-11-01T20:58:36.135Z,96.07
2017-11-01T21:01:03.678Z,95.84
2017-11-01T21:03:33.161Z,96.08
2017-11-01T21:06:00.699Z,95.54
2017-11-01T21:08:29.654Z,95.97
2017-11-01T21:10:58.365Z,95.84
2017-11-01T21:13:25.973Z,96.34
2017-11-01T21:15:53.516Z,96.23
2017-11-01T21:18:21.049Z,96.43
2017-11-01T21:20:48.585Z,96.64
2017-11-01T21:23:16.230Z,95.84
2017-11-01T21:25:43.777Z,96.10
2017-11-01T21:28:11.359Z,95.70
2017-11-01T21:30:38.905Z,95.80
2017-11-01T21:33:06.446Z,96.10
2017-11-01T21:35:34.960Z,95.48
2017-11-01T21:38:02.518Z,95.51
2017-11-01T21:40:30.096Z,96.56
2017-11-01T21:42:59.574Z,95.82
2017-11-01T21:45:27.364Z,95.96
2017-11-01T21:47:55.129Z,95.90
2017-11-01T21:50:22.702Z,95.88
2017-11-01T21:52:51.096Z,95.64
2017-11-01T21:55:18.646Z,96.10
2017-11-01T21:57:46.435Z,95.90
2017-11-01T22:00:14.007Z,95.90
2017-11-01T22:02:41.539Z,95.89
2017-11-01T22:05:09.790Z,96.34
2017-11-01T22:07:38.229Z,96.76
2017-11-01T22:10:06.642Z,96.54
2017-11-01T22:12:34.179Z,95.82
2017-11-01T22:15:01.708Z,96.26
2017-11-01T22:17:29.249Z,96.35
2017-11-01T22:19:57.633Z,96.32
2017-11-01T22:22:25.990Z,95.59
2017-11-01T22:24:53.528Z,95.68
2017-11-01T22:27:21.106Z,96.11
2017-11-01T22:29:48.676Z,96.16
2017-11-01T22:32:17.009Z,96.05
2017-11-01T22:34:44.549Z,96.17
2017-11-01T22:37:12.087Z,96.11
2017-11-01T22:39:39.632Z,95.88
2017-11-01T22:42:07.954Z,96.10
2017-11-01T22:44:36.328Z,95.90
2017-11-01T22:47:03.870Z,96.02
2017-11-01T22:49:32.418Z,96.03
2017-11-01T22:52:00.673Z,95.97
2017-11-01T22:54:29.692Z,96.05
2017-11-01T22:56:58.074Z,95.57
2017-11-01T22:59:29.784Z,95.43
2017-11-01T23:01:58.200Z,95.48
2017-11-01T23:04:26.684Z,95.38
2017-11-01T23:06:55.172Z,95.64
2017-11-01T23:09:22.737Z,95.88
2017-11-01T23:11:51.212Z,95.66
2017-11-01T23:14:19.552Z,95.79
2017-11-01T23:16:47.976Z,95.80
2017-11-01T23:19:16.429Z,95.58
2017-11-01T23:21:44.929Z,95.18
2017-11-01T23:24:13.308Z,95.30
2017-11-01T23:26:40.879Z,95.40
2017-11-01T23:29:08.416Z,95.33
2017-11-01T23:31:36.920Z,95.66
2017-11-01T23:34:05.252Z,95.53
2017-11-01T23:36:32.793Z,95.50
2017-11-01T23:39:01.231Z,95.66
2017-11-01T23:41:29.652Z,95.82
2017-11-01T23:43:57.189Z,96.01
2017-11-01T23:46:25.561Z,95.53
2017-11-01T23:48:54.060Z,95.56
2017-11-01T23:51:22.509Z,95.48
2017-11-01T23:53:50.912Z,94.78
2017-11-01T23:56:19.340Z,95.17
2017-11-01T23:58:47.705Z,95.61
